Time;durP1;ratioP1;P1;durP2;ratioP2;P2;SDS_P1;SDS_P2;PMS_P1;PMS_P2;Temp;Humidity;BMP_temperature;BMP_pressure;BME280_temperature;BME280_humidity;BME280_pressure;Samples;Min_cycle;Max_cycle;Signal;HPM_P1;HPM_P2
2022/01/25 00:30:21;;;;;;;;;;;;;;;15.24;53.22;102366.22;4976555;27;98523;-64
2022/01/25 00:32:41;;;;;;;;;;;;;;;15.22;53.16;102358.34;4983475;28;98168;-57
2022/01/25 00:35:07;;;;;;;;;;;;;;;15.21;52.99;102359.44;4981835;27;127652;-57
2022/01/25 00:37:33;;;;;;;;;;;;;;;15.21;53.45;102359.44;4982489;27;109855;-64
2022/01/25 00:39:59;;;;;;;;;;;;;;;15.22;53.12;102362.97;4980891;28;128369;-57
2022/01/25 00:42:25;;;;;;;;;;;;;;;15.23;53.08;102356.44;4982673;27;97754;-64
2022/01/25 00:44:52;;;;;;;;;;;;;;;15.23;53.02;102362.69;4982881;27;100645;-56
2022/01/25 00:47:20;;;;;;;;;;;;;;;15.23;53.21;102351.00;4982619;27;98198;-57
2022/01/25 00:49:51;;;;;;;;;;;;;;;15.23;53.23;102346.41;4981918;27;97812;-57
2022/01/25 00:53:54;;;;;;;;;;;;;;;15.23;52.95;102342.88;4983311;28;97841;-58
2022/01/25 00:55:11;;;;;;;;;;;;;;;15.23;53.08;102346.41;4982277;27;99114;-63
2022/01/25 00:57:37;;;;;;;;;;;;;;;15.23;52.79;102346.41;4981661;28;115591;-56
2022/01/25 01:00:07;;;;;;;;;;;;;;;15.23;53.20;102351.00;4981158;27;126890;-56
2022/01/25 01:02:33;;;;;;;;;;;;;;;15.23;53.07;102349.13;4982453;27;107948;-56
2022/01/25 01:04:59;;;;;;;;;;;;;;;15.23;53.24;102345.56;4980920;28;127733;-63
2022/01/25 01:07:25;;;;;;;;;;;;;;;15.23;53.02;102351.00;4982545;28;113879;-64
2022/01/25 01:09:53;;;;;;;;;;;;;;;15.23;52.86;102346.41;4981827;27;99003;-56
2022/01/25 01:15:32;;;;;;;;;;;;;;;15.23;53.17;102329.28;4981332;28;98226;-56
2022/01/25 01:34:48;;;;;;;;;;;;;;;15.21;53.01;102315.97;4981451;28;98071;-64
2022/01/25 01:45:09;;;;;;;;;;;;;;;15.19;53.12;102301.81;4980288;27;98021;-65
2022/01/25 01:47:44;;;;;;;;;;;;;;;15.20;53.05;102295.28;4982414;27;98483;-64
2022/01/25 01:50:15;;;;;;;;;;;;;;;15.19;52.80;102290.94;4983019;27;98603;-64
2022/01/25 01:52:41;;;;;;;;;;;;;;;15.18;52.96;102294.72;4982456;27;98006;-62
2022/01/25 01:55:07;;;;;;;;;;;;;;;15.18;52.98;102297.44;4981557;27;97786;-56
2022/01/25 01:57:33;;;;;;;;;;;;;;;15.17;52.75;102284.94;4981560;27;119564;-63
2022/01/25 01:59:59;;;;;;;;;;;;;;;15.17;52.69;102289.56;4980128;28;102274;-57
2022/01/25 02:02:25;;;;;;;;;;;;;;;15.17;53.03;102284.13;4980651;28;127469;-64
2022/01/25 02:04:51;;;;;;;;;;;;;;;15.16;52.88;102285.19;4980274;28;115589;-64
2022/01/25 02:07:17;;;;;;;;;;;;;;;15.15;53.04;102287.09;4980999;28;127931;-56
2022/01/25 02:09:43;;;;;;;;;;;;;;;15.14;52.80;102280.03;4980019;28;126310;-65
2022/01/25 02:12:09;;;;;;;;;;;;;;;15.14;53.09;102287.34;4980421;28;126286;-56
2022/01/25 02:14:36;;;;;;;;;;;;;;;15.14;52.98;102287.34;4981623;27;98476;-56
2022/01/25 02:17:11;;;;;;;;;;;;;;;15.13;52.63;102282.97;4981238;27;98495;-56
2022/01/25 02:22:27;;;;;;;;;;;;;;;15.12;52.67;102289.50;4978623;28;97713;-56
2022/01/25 02:24:53;;;;;;;;;;;;;;;15.11;52.78;102277.00;4981959;27;97576;-64
2022/01/25 02:27:19;;;;;;;;;;;;;;;15.09;52.99;102276.41;4981050;28;126647;-64
2022/01/25 02:29:45;;;;;;;;;;;;;;;15.08;52.99;102272.06;4980377;27;111587;-56
2022/01/25 02:32:11;;;;;;;;;;;;;;;15.08;52.99;102269.34;4980684;28;98604;-56
2022/01/25 02:34:37;;;;;;;;;;;;;;;15.07;52.75;102265.81;4980264;27;106979;-56
2022/01/25 02:37:06;;;;;;;;;;;;;;;15.07;52.77;102262.28;4979862;28;128288;-56
2022/01/25 02:39:32;;;;;;;;;;;;;;;15.05;53.13;102254.41;4978335;28;117854;-56
2022/01/25 02:41:58;;;;;;;;;;;;;;;15.05;53.18;102264.41;4979817;27;118854;-63
2022/01/25 02:44:26;;;;;;;;;;;;;;;15.03;53.05;102256.53;4980819;27;97732;-64
2022/01/25 02:49:29;;;;;;;;;;;;;;;15.02;53.03;102251.38;4979351;27;98140;-64
2022/01/25 02:51:55;;;;;;;;;;;;;;;15.02;52.85;102251.38;4981467;27;116742;-63
2022/01/25 02:54:21;;;;;;;;;;;;;;;15.00;53.08;102248.06;4980937;27;97906;-56
2022/01/25 02:56:47;;;;;;;;;;;;;;;14.98;53.04;102243.72;4980022;27;128966;-64
2022/01/25 02:59:14;;;;;;;;;;;;;;;14.98;52.78;102243.72;4979865;27;114514;-63
2022/01/25 03:01:40;;;;;;;;;;;;;;;14.98;52.98;102249.16;4981338;28;97918;-64
2022/01/25 03:04:06;;;;;;;;;;;;;;;14.98;52.69;102249.16;4980092;28;108675;-56
2022/01/25 03:06:32;;;;;;;;;;;;;;;14.97;53.15;102249.38;4980698;28;98584;-56
2022/01/25 03:08:58;;;;;;;;;;;;;;;14.96;52.98;102247.75;4978786;28;114821;-64
2022/01/25 03:11:25;;;;;;;;;;;;;;;14.95;52.69;102244.22;4980995;27;98543;-63
2022/01/25 03:13:54;;;;;;;;;;;;;;;14.94;53.06;102242.59;4981240;27;97845;-56
2022/01/25 03:16:35;;;;;;;;;;;;;;;14.94;52.67;102241.78;4974124;28;98094;-56
2022/01/25 03:19:04;;;;;;;;;;;;;;;14.94;53.08;102237.16;4981067;27;98697;-64
2022/01/25 03:23:56;;;;;;;;;;;;;;;14.92;52.74;102241.19;4978185;28;98109;-63
2022/01/25 03:26:22;;;;;;;;;;;;;;;14.92;53.05;102242.00;4980789;27;99254;-64
2022/01/25 03:28:48;;;;;;;;;;;;;;;14.93;52.65;102242.81;4979919;28;125022;-57
2022/01/25 03:31:15;;;;;;;;;;;;;;;14.92;52.72;102243.91;4980133;28;98593;-56
2022/01/25 03:33:41;;;;;;;;;;;;;;;14.91;52.68;102243.09;4980152;28;97893;-56
2022/01/25 03:36:07;;;;;;;;;;;;;;;14.91;52.63;102240.38;4981931;27;98988;-56
2022/01/25 03:38:37;;;;;;;;;;;;;;;14.90;53.11;102241.47;4980548;27;98869;-56
2022/01/25 03:41:04;;;;;;;;;;;;;;;14.88;52.82;102240.06;4979440;28;98405;-64
2022/01/25 03:43:30;;;;;;;;;;;;;;;14.88;52.99;102230.00;4981691;28;97836;-56
2022/01/25 03:46:12;;;;;;;;;;;;;;;14.88;52.80;102232.72;4979895;27;98632;-56
2022/01/25 03:51:07;;;;;;;;;;;;;;;14.86;53.16;102226.75;4979094;27;98123;-63
2022/01/25 03:53:33;;;;;;;;;;;;;;;14.87;52.70;102233.00;4979682;27;117524;-56
2022/01/25 03:55:59;;;;;;;;;;;;;;;14.87;52.80;102233.00;4980164;27;98954;-63
2022/01/25 03:58:26;;;;;;;;;;;;;;;14.86;52.95;102236.78;4979052;28;127760;-56
2022/01/25 04:00:52;;;;;;;;;;;;;;;14.86;53.06;102237.63;4979037;27;98893;-56
2022/01/25 04:03:45;;;;;;;;;;;;;;;14.86;53.09;102234.91;4978791;28;118602;-65
2022/01/25 04:06:04;;;;;;;;;;;;;;;14.85;53.06;102238.66;4981441;27;98057;-56
2022/01/25 04:08:33;;;;;;;;;;;;;;;14.85;52.83;102235.13;4984483;27;99268;-56
2022/01/25 04:10:59;;;;;;;;;;;;;;;14.86;52.77;102239.50;4982971;27;97936;-56
2022/01/25 04:13:25;;;;;;;;;;;;;;;14.85;52.72;102235.94;4983027;28;113927;-64
2022/01/25 04:15:54;;;;;;;;;;;;;;;14.86;52.75;102242.22;4982129;27;127982;-56
2022/01/25 04:18:59;;;;;;;;;;;;;;;14.85;53.10;102235.94;4983487;28;98380;-64
2022/01/25 04:21:27;;;;;;;;;;;;;;;14.85;52.85;102235.94;4980386;27;98452;-56
2022/01/25 04:26:37;;;;;;;;;;;;;;;14.85;52.59;102224.28;4983133;28;98371;-56
2022/01/25 04:29:06;;;;;;;;;;;;;;;14.85;52.70;102224.28;4982084;28;128407;-56
2022/01/25 04:31:34;;;;;;;;;;;;;;;14.84;52.47;102226.16;4982062;27;128393;-56
2022/01/25 04:34:11;;;;;;;;;;;;;;;14.85;52.95;102229.69;4982515;27;98298;-63
2022/01/25 04:50:12;;;;;;;;;;;;;;;14.80;53.03;102229.66;4981721;27;98119;-56
2022/01/25 04:52:51;;;;;;;;;;;;;;;14.78;52.93;102221.78;4982978;27;98426;-57
2022/01/25 04:55:24;;;;;;;;;;;;;;;14.75;52.72;102219.56;4984399;27;98049;-64
2022/01/25 04:57:58;;;;;;;;;;;;;;;14.76;52.70;102214.94;4983294;27;98408;-55
2022/01/25 05:00:25;;;;;;;;;;;;;;;14.75;52.65;102216.03;4982836;27;98124;-56
2022/01/25 05:02:59;;;;;;;;;;;;;;;14.72;53.05;102225.47;4981962;27;98037;-64
2022/01/25 05:05:33;;;;;;;;;;;;;;;14.71;52.77;102229.28;4982642;27;97746;-56
2022/01/25 05:10:36;;;;;;;;;;;;;;;14.69;52.91;102234.94;4982236;27;98487;-63
2022/01/25 05:13:37;;;;;;;;;;;;;;;14.69;52.93;102229.50;4982760;28;97719;-56
2022/01/25 05:16:15;;;;;;;;;;;;;;;14.68;53.08;102230.59;4981158;28;98873;-56
2022/01/25 05:18:45;;;;;;;;;;;;;;;14.69;52.69;102236.84;4982647;27;98175;-63
2022/01/25 05:23:55;;;;;;;;;;;;;;;14.68;52.80;102227.06;4979463;28;98634;-56
2022/01/25 05:26:21;;;;;;;;;;;;;;;14.67;52.72;102228.97;4982573;27;97894;-56
2022/01/25 05:28:47;;;;;;;;;;;;;;;14.68;53.08;102229.78;4980872;27;119771;-64
2022/01/25 05:31:13;;;;;;;;;;;;;;;14.68;52.74;102237.91;4981350;28;128194;-56
2022/01/25 05:33:39;;;;;;;;;;;;;;;14.66;52.71;102224.59;4981106;28;127691;-63
2022/01/25 05:36:05;;;;;;;;;;;;;;;14.66;52.75;102235.47;4982242;28;110087;-57
2022/01/25 05:38:31;;;;;;;;;;;;;;;14.67;53.06;102231.69;4981018;27;116564;-64
2022/01/25 05:41:00;;;;;;;;;;;;;;;14.66;53.16;102232.75;4982151;28;98522;-64
2022/01/25 05:46:12;;;;;;;;;;;;;;;14.66;52.75;102229.22;4977491;28;97997;-64
2022/01/25 05:48:38;;;;;;;;;;;;;;;14.66;52.75;102229.22;4979648;27;98561;-63
2022/01/25 05:51:04;;;;;;;;;;;;;;;14.67;52.90;102233.56;4979374;27;98282;-64
2022/01/25 05:53:31;;;;;;;;;;;;;;;14.67;52.70;102230.84;4977439;28;111641;-63
2022/01/25 05:55:57;;;;;;;;;;;;;;;14.66;52.77;102229.22;4978146;27;97869;-63
2022/01/25 05:58:23;;;;;;;;;;;;;;;14.66;53.09;102237.38;4977414;28;128678;-64
2022/01/25 06:00:49;;;;;;;;;;;;;;;14.66;53.00;102242.78;4977183;28;129227;-64
2022/01/25 06:03:14;;;;;;;;;;;;;;;14.65;52.77;102243.84;4978231;28;98142;-64
2022/01/25 06:05:40;;;;;;;;;;;;;;;14.65;53.21;102243.84;4978632;27;97784;-63
2022/01/25 06:08:06;;;;;;;;;;;;;;;14.64;53.17;102240.31;4975815;28;111375;-63
2022/01/25 06:10:33;;;;;;;;;;;;;;;14.63;53.02;102241.38;4976983;27;127395;-63
2022/01/25 06:12:58;;;;;;;;;;;;;;;14.63;52.91;102238.69;4976402;28;126726;-63
2022/01/25 06:15:24;;;;;;;;;;;;;;;14.64;53.08;102244.91;4980571;28;117398;-63
2022/01/25 06:17:56;;;;;;;;;;;;;;;14.63;52.95;102243.28;4979051;28;129296;-63
2022/01/25 06:20:22;;;;;;;;;;;;;;;14.62;52.97;102252.47;4980120;28;124912;-64
2022/01/25 06:22:48;;;;;;;;;;;;;;;14.62;53.24;102252.47;4981590;28;100058;-63
2022/01/25 06:25:14;;;;;;;;;;;;;;;14.63;53.13;102254.16;4980078;28;98126;-63
2022/01/25 06:27:40;;;;;;;;;;;;;;;14.61;52.94;102257.09;4980558;27;98758;-63
2022/01/25 06:30:07;;;;;;;;;;;;;;;14.62;53.24;102249.75;4981089;27;98670;-64
2022/01/25 06:32:34;;;;;;;;;;;;;;;14.61;52.79;102253.56;4980643;28;97868;-63
2022/01/25 06:35:00;;;;;;;;;;;;;;;14.60;53.21;102255.47;4980142;28;97644;-63
2022/01/25 06:37:26;;;;;;;;;;;;;;;14.60;52.89;102258.16;4981044;28;118648;-63
2022/01/25 06:39:52;;;;;;;;;;;;;;;14.59;52.79;102247.56;4978905;28;128203;-63
2022/01/25 06:42:18;;;;;;;;;;;;;;;14.60;52.99;102249.22;4981538;28;97916;-64
2022/01/25 06:44:44;;;;;;;;;;;;;;;14.58;52.78;102254.06;4981053;28;98001;-63
2022/01/25 06:47:10;;;;;;;;;;;;;;;14.57;53.06;102261.38;4980938;28;98804;-64
2022/01/25 06:49:36;;;;;;;;;;;;;;;14.58;53.08;102263.03;4979124;28;127461;-63
2022/01/25 06:52:02;;;;;;;;;;;;;;;14.58;52.88;102256.78;4980099;28;127146;-64
2022/01/25 06:54:28;;;;;;;;;;;;;;;14.57;52.81;102255.13;4980815;27;98619;-63
2022/01/25 06:56:53;;;;;;;;;;;;;;;14.57;52.81;102258.66;4978276;27;126271;-64
2022/01/25 06:59:19;;;;;;;;;;;;;;;14.56;53.20;102262.47;4980475;28;128015;-63
2022/01/25 07:01:45;;;;;;;;;;;;;;;14.57;53.09;102268.69;4981323;28;102202;-64
2022/01/25 07:04:11;;;;;;;;;;;;;;;14.56;52.72;102280.63;4979960;28;118016;-64
2022/01/25 07:06:38;;;;;;;;;;;;;;;14.56;53.04;102275.22;4979999;28;127986;-64
2022/01/25 07:09:03;;;;;;;;;;;;;;;14.55;52.75;102277.09;4980744;27;98394;-64
2022/01/25 07:11:29;;;;;;;;;;;;;;;14.57;52.78;102280.38;4980001;27;127279;-63
2022/01/25 07:13:56;;;;;;;;;;;;;;;14.56;52.72;102276.03;4980866;28;97794;-64
2022/01/25 07:16:22;;;;;;;;;;;;;;;14.57;52.86;102276.84;4980334;28;98512;-63
2022/01/25 07:18:48;;;;;;;;;;;;;;;14.57;53.04;102274.13;4980476;27;98869;-63
2022/01/25 07:21:14;;;;;;;;;;;;;;;14.57;52.98;102277.66;4979358;28;128138;-64
2022/01/25 07:23:41;;;;;;;;;;;;;;;14.59;53.05;102291.00;4981143;28;97902;-63
2022/01/25 07:26:07;;;;;;;;;;;;;;;14.58;52.64;102283.91;4980035;28;99231;-63
2022/01/25 07:28:33;;;;;;;;;;;;;;;14.58;52.66;102284.75;4980607;27;98997;-63
2022/01/25 07:30:59;;;;;;;;;;;;;;;14.57;52.93;102279.56;4979784;28;98830;-63
2022/01/25 07:33:25;;;;;;;;;;;;;;;14.57;53.03;102284.97;4980247;27;118101;-63
2022/01/25 07:35:51;;;;;;;;;;;;;;;14.58;53.08;102283.91;4980138;28;98861;-56
2022/01/25 07:38:17;;;;;;;;;;;;;;;14.58;53.04;102289.34;4979349;28;113602;-64
2022/01/25 07:40:44;;;;;;;;;;;;;;;14.57;52.73;102291.22;4981155;27;116947;-62
2022/01/25 07:43:10;;;;;;;;;;;;;;;14.58;52.74;102283.91;4984637;28;97872;-64
2022/01/25 07:45:36;;;;;;;;;;;;;;;14.57;53.04;102282.28;4983250;28;98196;-56
2022/01/25 07:48:06;;;;;;;;;;;;;;;14.57;53.04;102274.13;4983542;27;99024;-56
2022/01/25 07:50:32;;;;;;;;;;;;;;;14.57;52.81;102279.56;4982897;27;117996;-56
2022/01/25 07:52:58;;;;;;;;;;;;;;;14.57;52.95;102271.41;4983901;27;98081;-56
2022/01/25 07:55:24;;;;;;;;;;;;;;;14.57;52.51;102274.94;4983792;28;98695;-57
2022/01/25 07:57:50;;;;;;;;;;;;;;;14.58;52.74;102270.34;4984471;28;98210;-63
2022/01/25 08:00:16;;;;;;;;;;;;;;;14.58;52.52;102275.75;4981831;28;123848;-57
2022/01/25 08:02:44;;;;;;;;;;;;;;;14.58;52.81;102268.47;4982869;28;97734;-56
2022/01/25 08:05:12;;;;;;;;;;;;;;;14.58;52.55;102257.63;4982238;27;98685;-56
2022/01/25 08:07:38;;;;;;;;;;;;;;;14.58;52.61;102256.78;4984244;27;98176;-56
2022/01/25 08:10:04;;;;;;;;;;;;;;;14.58;52.92;102254.91;4981261;28;128003;-56
2022/01/25 08:12:29;;;;;;;;;;;;;;;14.59;52.52;102258.44;4982902;28;97918;-57
2022/01/25 08:14:58;;;;;;;;;;;;;;;14.57;52.69;102247.81;4986716;27;112217;-57
2022/01/25 08:17:24;;;;;;;;;;;;;;;14.58;52.77;102251.34;4984476;27;98565;-56
2022/01/25 08:19:50;;;;;;;;;;;;;;;14.57;52.33;102250.53;4981012;28;126764;-56
2022/01/25 08:22:18;;;;;;;;;;;;;;;14.59;52.63;102256.53;4982056;27;119063;-56
2022/01/25 08:24:44;;;;;;;;;;;;;;;14.59;52.76;102253.00;4982459;27;98422;-57
2022/01/25 08:27:11;;;;;;;;;;;;;;;14.59;52.56;102247.56;4982159;28;98908;-56
2022/01/25 08:29:38;;;;;;;;;;;;;;;14.59;52.86;102248.41;4982620;27;97964;-56
2022/01/25 08:32:04;;;;;;;;;;;;;;;14.59;52.67;102250.28;4981410;27;109442;-56
2022/01/25 08:34:30;;;;;;;;;;;;;;;14.58;52.88;102241.34;4980182;27;118687;-56
2022/01/25 08:36:56;;;;;;;;;;;;;;;14.58;52.79;102248.63;4981125;27;98508;-56
2022/01/25 08:39:25;;;;;;;;;;;;;;;14.58;52.69;102240.50;4980818;28;120363;-57
2022/01/25 08:41:54;;;;;;;;;;;;;;;14.58;52.52;102245.91;4982788;27;97770;-56
2022/01/25 08:44:20;;;;;;;;;;;;;;;14.56;52.86;102248.88;4981337;28;99145;-63
2022/01/25 08:46:46;;;;;;;;;;;;;;;14.57;52.94;102249.72;4979736;27;128518;-57
2022/01/25 08:49:12;;;;;;;;;;;;;;;14.56;52.51;102248.88;4981465;28;126798;-64
2022/01/25 08:51:38;;;;;;;;;;;;;;;14.60;52.50;102243.78;4980980;27;98044;-63
2022/01/25 08:54:05;;;;;;;;;;;;;;;14.69;52.92;102247.69;4980683;28;126042;-56
2022/01/25 08:56:31;;;;;;;;;;;;;;;14.74;52.39;102255.91;4981110;27;98118;-63
2022/01/25 08:58:57;;;;;;;;;;;;;;;14.82;52.68;102258.19;4981173;27;98326;-56
2022/01/25 09:01:23;;;;;;;;;;;;;;;14.88;52.48;102256.34;4980909;28;116732;-56
2022/01/25 09:03:49;;;;;;;;;;;;;;;14.92;52.57;102250.16;4980856;28;112917;-63
2022/01/25 09:06:15;;;;;;;;;;;;;;;14.94;52.16;102253.44;4981320;27;99061;-63
2022/01/25 09:08:41;;;;;;;;;;;;;;;14.98;52.21;102262.72;4979878;28;126971;-63
2022/01/25 09:11:07;;;;;;;;;;;;;;;15.01;52.41;102261.38;4980386;27;119132;-56
2022/01/25 09:13:33;;;;;;;;;;;;;;;15.03;52.14;102267.41;4981751;27;98650;-63
2022/01/25 09:16:00;;;;;;;;;;;;;;;15.05;52.33;102262.53;4960822;28;100128;-56
2022/01/25 09:18:26;;;;;;;;;;;;;;;15.06;52.09;102275.03;4961106;28;98675;-63
2022/01/25 09:20:52;;;;;;;;;;;;;;;15.08;52.24;102278.31;4979293;28;105870;-63
2022/01/25 09:23:19;;;;;;;;;;;;;;;15.10;52.27;102280.78;4980553;28;127355;-56
2022/01/25 09:25:47;;;;;;;;;;;;;;;15.12;51.89;102273.19;4981192;27;98139;-56
2022/01/25 09:28:13;;;;;;;;;;;;;;;15.13;52.11;102280.25;4982021;27;98691;-63
2022/01/25 09:30:39;;;;;;;;;;;;;;;15.12;52.05;102276.72;4980838;27;98177;-56
2022/01/25 09:33:05;;;;;;;;;;;;;;;15.14;51.96;102285.44;4916501;27;1810318;-56
2022/01/25 09:35:31;;;;;;;;;;;;;;;15.16;52.12;102283.28;4979123;27;98951;-63
2022/01/25 09:37:58;;;;;;;;;;;;;;;15.17;51.95;102273.28;4981542;28;126463;-56
2022/01/25 09:40:24;;;;;;;;;;;;;;;15.19;51.92;102281.97;4982018;27;97838;-56
2022/01/25 09:42:53;;;;;;;;;;;;;;;15.19;51.98;102280.06;5011647;27;98477;-63
2022/01/25 09:45:19;;;;;;;;;;;;;;;15.19;51.95;102271.09;4981826;27;99268;-56
2022/01/25 09:47:46;;;;;;;;;;;;;;;15.20;51.53;102273.56;4982064;28;98452;-56
2022/01/25 09:50:12;;;;;;;;;;;;;;;15.21;51.77;102271.69;4982598;27;97812;-57
2022/01/25 09:52:40;;;;;;;;;;;;;;;15.22;51.92;102276.84;4981357;28;127943;-56
2022/01/25 09:55:12;;;;;;;;;;;;;;;15.25;51.77;102278.25;4980366;27;98680;-63
2022/01/25 09:57:38;;;;;;;;;;;;;;;15.27;51.77;102283.41;4981701;27;98043;-63
2022/01/25 10:00:06;;;;;;;;;;;;;;;15.27;51.82;102280.69;4981871;28;97793;-63
2022/01/25 10:02:49;;;;;;;;;;;;;;;15.29;51.50;102282.09;4980583;27;98204;-63
2022/01/25 10:05:15;;;;;;;;;;;;;;;15.31;51.58;102274.50;4980855;27;98245;-56
2022/01/25 10:07:41;;;;;;;;;;;;;;;15.35;51.56;102272.91;4981666;27;97819;-56
2022/01/25 10:10:07;;;;;;;;;;;;;;;15.36;51.54;102260.13;4978761;27;117410;-63
2022/01/25 10:12:33;;;;;;;;;;;;;;;15.38;51.69;102268.88;4981125;27;98128;-63
2022/01/25 10:14:59;;;;;;;;;;;;;;;15.40;51.69;102275.66;4979747;28;128062;-56
2022/01/25 10:17:32;;;;;;;;;;;;;;;15.42;51.75;102276.25;4982207;28;98448;-56
2022/01/25 10:19:58;;;;;;;;;;;;;;;15.40;51.67;102281.09;4980724;27;112282;-57
2022/01/25 10:22:24;;;;;;;;;;;;;;;15.37;51.65;102275.38;4980256;28;128008;-56
2022/01/25 10:24:50;;;;;;;;;;;;;;;15.34;52.02;102278.59;4979673;27;99209;-63
2022/01/25 10:27:18;;;;;;;;;;;;;;;15.30;51.76;102274.75;4980333;28;127397;-56
2022/01/25 10:29:44;;;;;;;;;;;;;;;15.27;52.21;102273.38;4979659;27;97800;-56
2022/01/25 10:32:13;;;;;;;;;;;;;;;15.25;52.02;102280.13;4979564;28;127617;-56
2022/01/25 10:34:44;;;;;;;;;;;;;;;15.22;51.96;102276.84;4979967;27;98853;-56
2022/01/25 10:37:18;;;;;;;;;;;;;;;15.22;52.22;102284.19;4980453;28;97892;-57
2022/01/25 10:39:46;;;;;;;;;;;;;;;15.21;52.01;102280.66;4981269;27;97973;-56
2022/01/25 10:42:18;;;;;;;;;;;;;;;15.19;52.06;102276.53;4981407;28;98226;-64
2022/01/25 10:45:02;;;;;;;;;;;;;;;15.18;52.31;102278.44;4981193;27;98271;-56
2022/01/25 10:47:49;;;;;;;;;;;;;;;15.17;52.26;102279.53;4960489;28;98779;-63
2022/01/25 10:50:22;;;;;;;;;;;;;;;15.17;52.33;102286.84;4964193;28;97985;-63
2022/01/25 10:53:02;;;;;;;;;;;;;;;15.15;52.16;102283.56;4982029;27;98859;-58
2022/01/25 10:55:39;;;;;;;;;;;;;;;15.14;52.24;102277.31;4980872;27;98211;-56
2022/01/25 10:58:05;;;;;;;;;;;;;;;15.14;52.09;102277.31;4980369;27;98354;-64
2022/01/25 11:00:33;;;;;;;;;;;;;;;15.15;52.18;102278.13;4980368;28;97823;-56
2022/01/25 11:02:59;;;;;;;;;;;;;;;15.14;51.91;102282.75;4981512;27;98184;-64
2022/01/25 11:05:25;;;;;;;;;;;;;;;15.13;52.22;102280.25;5010845;27;127643;-63
2022/01/25 11:07:51;;;;;;;;;;;;;;;15.13;52.14;102274.81;4980309;27;98705;-63
2022/01/25 11:10:19;;;;;;;;;;;;;;;15.12;52.06;102265.84;4981694;28;118287;-56
2022/01/25 11:13:00;;;;;;;;;;;;;;;15.13;51.98;102264.81;4982146;27;98543;-63
2022/01/25 11:15:26;;;;;;;;;;;;;;;15.13;51.92;102272.97;4978364;28;98963;-56
2022/01/25 11:17:52;;;;;;;;;;;;;;;15.11;52.23;102277.81;4979965;28;109938;-56
2022/01/25 11:20:18;;;;;;;;;;;;;;;15.12;52.33;102265.84;4980179;27;117052;-63
2022/01/25 11:22:44;;;;;;;;;;;;;;;15.12;52.20;102265.84;4979910;28;127246;-63
2022/01/25 11:25:10;;;;;;;;;;;;;;;15.14;52.11;102268.34;4979283;27;98527;-64
2022/01/25 11:27:36;;;;;;;;;;;;;;;15.14;51.98;102269.16;4978369;28;127343;-63
2022/01/25 11:30:08;;;;;;;;;;;;;;;15.16;52.30;102266.19;4994391;27;117587;-57
2022/01/25 11:32:40;;;;;;;;;;;;;;;15.18;51.96;102264.03;4980133;28;99017;-64
2022/01/25 11:35:08;;;;;;;;;;;;;;;15.21;51.75;102269.78;4961453;28;98460;-64
2022/01/25 11:37:42;;;;;;;;;;;;;;;15.20;52.18;102259.97;4974701;28;117317;-57
2022/01/25 11:40:30;;;;;;;;;;;;;;;15.25;52.15;102253.81;4978450;28;98026;-63
2022/01/25 11:43:00;;;;;;;;;;;;;;;15.26;52.10;102241.84;4980728;28;98628;-56
2022/01/25 11:45:29;;;;;;;;;;;;;;;15.27;51.77;102240.78;4979653;28;113727;-64
2022/01/25 11:47:55;;;;;;;;;;;;;;;15.30;51.91;102244.88;4979754;27;113591;-63
2022/01/25 11:50:34;;;;;;;;;;;;;;;15.31;51.90;102244.59;4978124;27;98297;-56
2022/01/25 11:53:08;;;;;;;;;;;;;;;15.32;51.95;102229.94;4979393;28;105321;-64
2022/01/25 11:55:35;;;;;;;;;;;;;;;15.37;51.88;102226.47;4978896;27;99016;-62
2022/01/25 11:58:06;;;;;;;;;;;;;;;15.45;51.76;102226.00;4979363;28;98469;-63
2022/01/25 12:00:52;;;;;;;;;;;;;;;15.58;51.51;102217.44;4978976;27;98010;-56
2022/01/25 12:03:38;;;;;;;;;;;;;;;15.71;51.37;102211.56;4963181;28;122672;-56
2022/01/25 12:06:06;;;;;;;;;;;;;;;15.80;51.26;102209.22;4977080;28;98827;-64
2022/01/25 12:11:28;;;;;;;;;;;;;;;15.97;51.36;102200.09;4970918;27;98435;-63
2022/01/25 12:14:14;;;;;;;;;;;;;;;16.01;51.24;102195.75;4979887;27;99870;-63
2022/01/25 12:16:45;;;;;;;;;;;;;;;16.03;51.50;102196.31;4979069;27;99390;-63
2022/01/25 12:19:19;;;;;;;;;;;;;;;16.02;51.65;102192.78;4980189;27;98110;-64
2022/01/25 12:21:45;;;;;;;;;;;;;;;16.05;51.56;102192.25;4977205;28;98044;-56
2022/01/25 12:24:23;;;;;;;;;;;;;;;16.08;51.63;102185.47;4979552;27;98169;-64
2022/01/25 12:27:03;;;;;;;;;;;;;;;16.10;51.70;102189.56;4981051;27;99341;-56
2022/01/25 12:29:34;;;;;;;;;;;;;;;16.09;51.62;102179.75;4982892;28;98112;-57
2022/01/25 12:32:17;;;;;;;;;;;;;;;16.03;51.89;102174.53;4983005;27;97927;-63
2022/01/25 12:35:02;;;;;;;;;;;;;;;16.01;51.88;102174.81;4981955;27;120391;-56
2022/01/25 12:37:55;;;;;;;;;;;;;;;16.06;51.96;102174.84;4982960;28;99237;-63
2022/01/25 12:40:29;;;;;;;;;;;;;;;16.10;51.61;102170.50;4976598;27;98080;-64
2022/01/25 12:43:07;;;;;;;;;;;;;;;16.13;52.11;102167.28;4983759;28;97926;-57
2022/01/25 12:45:36;;;;;;;;;;;;;;;16.09;52.08;102168.06;4981327;27;98960;-56
2022/01/25 12:48:04;;;;;;;;;;;;;;;16.11;52.03;102160.44;4982875;27;99287;-56
2022/01/25 12:50:30;;;;;;;;;;;;;;;16.17;52.15;102159.41;4982319;27;98788;-56
2022/01/25 12:52:59;;;;;;;;;;;;;;;16.28;51.76;102157.56;4982794;27;117407;-56
2022/01/25 12:55:30;;;;;;;;;;;;;;;16.43;51.39;102154.91;4982042;27;98857;-64
2022/01/25 12:57:56;;;;;;;;;;;;;;;16.48;51.52;102157.66;4982966;27;98632;-57
2022/01/25 13:00:27;;;;;;;;;;;;;;;16.43;51.81;102153.00;4981764;28;97978;-63
2022/01/25 13:02:53;;;;;;;;;;;;;;;16.43;52.03;102150.28;4979042;28;108866;-56
2022/01/25 13:05:20;;;;;;;;;;;;;;;16.48;51.85;102140.50;4978761;28;122742;-56
2022/01/25 13:07:47;;;;;;;;;;;;;;;16.53;52.07;102137.78;4980666;28;99319;-56
2022/01/25 13:10:32;;;;;;;;;;;;;;;16.66;51.82;102132.69;4980513;27;117933;-56
2022/01/25 13:13:10;;;;;;;;;;;;;;;16.71;51.76;102126.41;4982499;28;97918;-56
2022/01/25 13:15:51;;;;;;;;;;;;;;;16.72;51.75;102130.78;4980165;27;98602;-63
2022/01/25 13:18:17;;;;;;;;;;;;;;;16.74;51.78;102131.38;4980209;28;100281;-63
2022/01/25 13:20:46;;;;;;;;;;;;;;;16.72;52.00;102124.50;4980773;28;120214;-57
2022/01/25 13:23:13;;;;;;;;;;;;;;;16.62;51.96;102130.72;4982383;27;98309;-63
2022/01/25 13:28:34;;;;;;;;;;;;;;;16.60;52.38;102127.47;4975520;27;98241;-63
2022/01/25 13:31:05;;;;;;;;;;;;;;;16.59;52.21;102125.84;4977714;27;97760;-63
2022/01/25 13:33:31;;;;;;;;;;;;;;;16.60;52.16;102136.44;4976724;28;100517;-63
2022/01/25 13:35:57;;;;;;;;;;;;;;;16.58;52.34;102135.06;4976662;27;128526;-63
2022/01/25 13:38:30;;;;;;;;;;;;;;;16.50;52.36;102138.31;4976699;27;127949;-63
2022/01/25 13:46:11;;;;;;;;;;;;;;;16.27;52.51;102134.97;4975542;28;98573;-61
2022/01/25 13:48:37;;;;;;;;;;;;;;;16.24;52.96;102145.56;4978055;27;98238;-56
2022/01/25 13:51:08;;;;;;;;;;;;;;;16.18;52.70;102142.00;4976723;27;125985;-56
2022/01/25 13:53:35;;;;;;;;;;;;;;;16.19;52.57;102143.63;4979783;27;97974;-56
2022/01/25 13:56:09;;;;;;;;;;;;;;;16.17;52.51;102143.91;4976985;27;98602;-57
2022/01/25 13:58:37;;;;;;;;;;;;;;;16.12;52.70;102143.06;4978476;27;99005;-56
2022/01/25 14:01:04;;;;;;;;;;;;;;;16.06;52.57;102141.38;4977418;28;98207;-61
2022/01/25 14:03:35;;;;;;;;;;;;;;;16.01;52.69;102138.66;4978540;27;98128;-63
2022/01/25 14:06:01;;;;;;;;;;;;;;;15.98;52.64;102144.59;4977475;27;98757;-63
2022/01/25 14:08:34;;;;;;;;;;;;;;;15.93;52.65;102139.97;4978438;28;98840;-56
2022/01/25 14:11:03;;;;;;;;;;;;;;;15.87;52.72;102135.56;4977285;27;98296;-63
2022/01/25 14:22:10;;;;;;;;;;;;;;;15.68;52.71;102132.47;4978726;27;98129;-63
2022/01/25 14:24:36;;;;;;;;;;;;;;;15.64;52.93;102134.00;4976109;27;97900;-63
2022/01/25 14:27:19;;;;;;;;;;;;;;;15.61;52.84;102142.72;4975778;28;127506;-56
2022/01/25 14:29:45;;;;;;;;;;;;;;;15.58;52.75;102140.50;4978027;27;99092;-63
2022/01/25 14:32:11;;;;;;;;;;;;;;;15.54;52.72;102148.38;4977538;28;100249;-63